< < Back
Terminal Aerodrome Forecast


Current Version              Previous Versions:   1  2  3  4  5  6  7  8  9  

Terminal Aerodrome Forecast

732
FTUS42 KCAE 180800 AAA
TAFCAE
TAF AMD
KCAE 180831Z 1809/1906 VRB03KT P6SM SCT250
     FM181500 VRB05KT P6SM SCT150=

Latest METAR

448
SAUS80 KWBC 180900
MTRCAE
METAR KCAE 180856Z 00000KT 10SM CLR 02/M01 A3008 RMK AO2 SLP187
T00171006 56002


USA.gov is the U.S. government's official web portal to all federal, state and local government web resources and services.